createdAt,value
2019-04-26T00:00:34.019Z,17.40
2019-04-26T00:03:05.773Z,17.30
2019-04-26T00:05:36.181Z,17.30
2019-04-26T00:08:06.019Z,17.30
2019-04-26T00:10:54.225Z,17.20
2019-04-26T00:13:30.928Z,17.20
2019-04-26T00:16:08.393Z,17.10
2019-04-26T00:18:39.489Z,17.10
2019-04-26T00:21:09.609Z,17.10
2019-04-26T00:23:39.617Z,17.10
2019-04-26T00:26:09.174Z,17.10
2019-04-26T00:28:38.598Z,17.00
2019-04-26T00:31:07.866Z,17.00
2019-04-26T00:33:37.125Z,16.90
2019-04-26T00:36:06.734Z,16.90
2019-04-26T00:38:36.006Z,16.90
2019-04-26T00:41:05.581Z,16.80
2019-04-26T00:43:35.405Z,16.80
2019-04-26T00:46:05.974Z,16.80
2019-04-26T00:48:36.256Z,16.80
2019-04-26T00:51:06.477Z,16.70
2019-04-26T00:53:36.956Z,16.70
2019-04-26T00:56:06.739Z,16.60
2019-04-26T00:58:36.764Z,16.60
2019-04-26T01:01:06.034Z,16.60
2019-04-26T01:03:35.617Z,16.60
2019-04-26T01:06:07.091Z,16.60
2019-04-26T01:08:36.574Z,16.50
2019-04-26T01:11:05.835Z,16.50
2019-04-26T01:13:35.097Z,16.50
2019-04-26T01:16:04.353Z,16.50
2019-04-26T01:18:35.169Z,16.40
2019-04-26T01:21:05.918Z,16.40
2019-04-26T01:23:38.805Z,16.50
2019-04-26T01:26:17.009Z,16.40
2019-04-26T01:29:01.070Z,16.50
2019-04-26T01:31:33.437Z,16.50
2019-04-26T01:34:02.701Z,16.40
2019-04-26T01:36:33.535Z,16.50
2019-04-26T01:39:12.135Z,16.50
2019-04-26T01:41:46.787Z,16.40
2019-04-26T01:44:24.618Z,16.40
2019-04-26T01:46:54.891Z,16.40
2019-04-26T01:49:24.762Z,16.40
2019-04-26T01:52:03.074Z,16.40
2019-04-26T01:54:38.281Z,16.40
2019-04-26T01:57:07.543Z,16.50
2019-04-26T01:59:40.559Z,16.40
2019-04-26T02:02:29.785Z,16.40
2019-04-26T02:05:01.994Z,16.40
2019-04-26T02:07:41.013Z,16.40
2019-04-26T02:10:12.905Z,16.40
2019-04-26T02:12:45.234Z,16.40
2019-04-26T02:15:15.172Z,16.40
2019-04-26T02:17:45.738Z,16.40
2019-04-26T02:20:35.578Z,16.40
2019-04-26T02:23:15.553Z,16.40
2019-04-26T02:25:44.942Z,16.40
2019-04-26T02:28:14.253Z,16.40
2019-04-26T02:30:43.506Z,16.40
2019-04-26T02:33:12.951Z,16.40
2019-04-26T02:35:42.415Z,16.40
2019-04-26T02:38:11.666Z,16.30
2019-04-26T02:40:40.934Z,16.30
2019-04-26T02:43:11.087Z,16.30
2019-04-26T02:46:08.782Z,16.30
2019-04-26T02:48:55.015Z,16.30
2019-04-26T02:51:32.994Z,16.30
2019-04-26T02:54:20.661Z,16.30
2019-04-26T02:56:51.519Z,16.30
2019-04-26T02:59:50.314Z,16.30
2019-04-26T03:02:24.716Z,16.30
2019-04-26T03:04:59.210Z,16.30
2019-04-26T03:07:44.561Z,16.20
2019-04-26T03:10:14.219Z,16.20
2019-04-26T03:12:45.784Z,16.20
2019-04-26T03:15:26.921Z,16.20
2019-04-26T03:18:19.797Z,16.20
2019-04-26T03:20:53.725Z,16.20
2019-04-26T03:23:56.236Z,16.20
2019-04-26T03:26:53.023Z,16.20
2019-04-26T03:29:39.633Z,16.20
2019-04-26T03:32:24.250Z,16.30
2019-04-26T03:35:37.000Z,16.30
2019-04-26T03:38:21.441Z,16.30
2019-04-26T03:41:14.962Z,16.30
2019-04-26T03:44:17.323Z,16.30
2019-04-26T03:46:51.614Z,16.30
2019-04-26T03:49:54.168Z,16.30
2019-04-26T03:52:56.908Z,16.30
2019-04-26T03:56:20.013Z,16.30
2019-04-26T03:59:15.824Z,16.30
2019-04-26T04:01:57.562Z,16.30
2019-04-26T04:04:38.616Z,16.30
2019-04-26T04:07:11.362Z,16.40
2019-04-26T04:09:44.901Z,16.40
2019-04-26T04:12:51.794Z,16.40
2019-04-26T04:15:28.442Z,16.30
2019-04-26T04:18:01.896Z,16.30
2019-04-26T04:21:29.958Z,16.40
2019-04-26T04:24:09.680Z,16.30
2019-04-26T04:26:55.372Z,16.30
2019-04-26T04:29:55.527Z,16.30
2019-04-26T04:32:51.937Z,16.30
2019-04-26T04:35:24.170Z,16.20
2019-04-26T04:38:09.005Z,16.20
2019-04-26T04:41:01.090Z,16.30
2019-04-26T04:43:41.936Z,16.30
2019-04-26T04:46:56.167Z,16.30
2019-04-26T04:49:42.414Z,16.30
2019-04-26T04:52:38.817Z,16.30
2019-04-26T04:55:14.460Z,16.40
2019-04-26T04:58:02.043Z,16.40
2019-04-26T05:01:07.153Z,16.40
2019-04-26T05:03:49.181Z,16.30
2019-04-26T05:06:29.872Z,16.30
2019-04-26T05:09:10.418Z,16.30
2019-04-26T05:12:20.782Z,16.30
2019-04-26T05:15:37.945Z,16.30
2019-04-26T05:18:29.233Z,16.30
2019-04-26T05:21:46.516Z,16.40
2019-04-26T05:24:41.554Z,16.40
2019-04-26T05:27:44.339Z,16.40
2019-04-26T05:31:15.586Z,16.50
2019-04-26T05:34:07.415Z,16.60
2019-04-26T05:37:01.029Z,16.70
2019-04-26T05:39:40.522Z,16.90
2019-04-26T05:43:00.424Z,17.00
2019-04-26T05:46:05.554Z,17.10
2019-04-26T05:49:22.435Z,17.20
2019-04-26T05:52:23.861Z,17.40
2019-04-26T05:55:25.366Z,17.50
2019-04-26T05:58:25.067Z,17.60
2019-04-26T06:01:56.854Z,17.70
2019-04-26T06:04:43.402Z,17.80
2019-04-26T06:07:29.416Z,17.90
2019-04-26T06:10:35.273Z,18.00
2019-04-26T06:13:32.260Z,18.10
2019-04-26T06:16:21.404Z,18.20
2019-04-26T06:19:11.865Z,18.20
2019-04-26T06:22:06.677Z,18.30
2019-04-26T06:25:13.794Z,18.40
2019-04-26T06:27:58.452Z,18.40
2019-04-26T06:30:59.386Z,18.50
2019-04-26T06:33:47.939Z,18.60
2019-04-26T06:36:25.026Z,18.70
2019-04-26T06:39:24.140Z,18.80
2019-04-26T06:42:32.889Z,18.90
2019-04-26T06:45:41.309Z,19.00
2019-04-26T06:48:36.281Z,19.20
2019-04-26T06:51:24.082Z,19.30
2019-04-26T06:54:14.954Z,19.50
2019-04-26T06:57:17.743Z,19.70
2019-04-26T07:00:19.278Z,19.80
2019-04-26T07:03:33.034Z,20.10
2019-04-26T07:06:07.167Z,20.30
2019-04-26T07:09:11.510Z,20.50
2019-04-26T07:12:19.671Z,20.70
2019-04-26T07:15:28.774Z,20.80
2019-04-26T07:18:30.738Z,21.00
2019-04-26T07:21:45.409Z,21.10
2019-04-26T07:25:03.945Z,21.10
2019-04-26T07:28:09.403Z,21.10
2019-04-26T07:31:04.157Z,21.00
2019-04-26T07:33:58.314Z,20.90
2019-04-26T07:37:04.649Z,20.80
2019-04-26T07:40:41.293Z,20.90
2019-04-26T07:43:30.590Z,20.80
2019-04-26T07:46:26.229Z,20.80
2019-04-26T07:49:31.250Z,20.80
2019-04-26T07:52:31.438Z,20.90
2019-04-26T07:55:54.145Z,20.90
2019-04-26T07:59:08.809Z,21.00
2019-04-26T08:02:29.829Z,21.10
2019-04-26T08:05:07.926Z,21.20
2019-04-26T08:07:43.078Z,21.30
2019-04-26T08:10:16.819Z,21.40
2019-04-26T08:12:52.398Z,21.50
2019-04-26T08:15:44.358Z,21.70
2019-04-26T08:18:22.082Z,24.80
2019-04-26T08:20:55.178Z,30.70
2019-04-26T08:23:39.487Z,34.40
2019-04-26T08:26:06.159Z,36.90
2019-04-26T08:28:38.754Z,39.00
2019-04-26T08:31:11.540Z,40.40
2019-04-26T08:33:48.803Z,41.40
2019-04-26T08:36:27.151Z,42.10
2019-04-26T08:38:55.557Z,43.40
2019-04-26T08:41:25.521Z,44.30
2019-04-26T08:44:08.621Z,45.30
2019-04-26T08:46:58.851Z,45.80
2019-04-26T08:49:39.072Z,46.30
2019-04-26T08:52:14.591Z,46.50
2019-04-26T08:54:53.603Z,46.80
2019-04-26T08:57:27.573Z,46.80
2019-04-26T09:00:00.339Z,46.90
2019-04-26T09:02:43.895Z,47.20
2019-04-26T09:05:49.865Z,47.20
2019-04-26T09:08:23.279Z,47.00
2019-04-26T09:10:55.362Z,46.90
2019-04-26T09:13:28.694Z,47.70
2019-04-26T09:16:05.436Z,47.20
2019-04-26T09:18:42.955Z,47.90
2019-04-26T09:21:05.814Z,49.00
2019-04-26T09:23:52.645Z,49.70
2019-04-26T09:26:42.446Z,49.10
2019-04-26T09:29:30.473Z,48.60
2019-04-26T09:32:19.425Z,48.50
2019-04-26T09:34:49.225Z,47.50
2019-04-26T09:37:18.710Z,47.00
2019-04-26T09:39:47.974Z,47.10
2019-04-26T09:42:27.711Z,47.20
2019-04-26T09:45:15.171Z,47.80
2019-04-26T09:47:50.873Z,49.10
2019-04-26T09:50:48.205Z,49.50
2019-04-26T09:53:19.256Z,50.30
2019-04-26T09:55:48.643Z,50.40
2019-04-26T09:58:18.625Z,50.30
2019-04-26T10:00:50.190Z,50.10
2019-04-26T10:03:19.741Z,49.50
2019-04-26T10:05:52.120Z,48.90
2019-04-26T10:08:20.733Z,48.70
2019-04-26T10:10:51.749Z,49.10
2019-04-26T10:13:40.260Z,48.60
2019-04-26T10:16:18.638Z,49.50
2019-04-26T10:18:54.492Z,50.90
2019-04-26T10:21:29.976Z,50.30
2019-04-26T10:23:59.314Z,49.30
2019-04-26T10:26:29.833Z,47.60
2019-04-26T10:28:59.522Z,44.70
2019-04-26T10:31:32.775Z,43.10
2019-04-26T10:34:02.230Z,41.70
2019-04-26T10:36:31.717Z,40.80
2019-04-26T10:39:01.101Z,39.20
2019-04-26T10:41:30.752Z,37.70
2019-04-26T10:44:00.034Z,36.30
2019-04-26T10:46:29.537Z,35.10
2019-04-26T10:49:08.548Z,34.10
2019-04-26T10:51:38.577Z,33.40
2019-04-26T10:54:17.941Z,32.70
2019-04-26T10:57:04.834Z,32.30
2019-04-26T10:59:47.726Z,31.70
2019-04-26T11:02:19.141Z,31.40
2019-04-26T11:04:48.689Z,31.10
2019-04-26T11:07:17.954Z,30.90
2019-04-26T11:09:47.277Z,30.80
2019-04-26T11:12:17.954Z,30.70
2019-04-26T11:14:47.222Z,30.50
2019-04-26T11:17:17.829Z,30.20
2019-04-26T11:19:47.247Z,30.10
2019-04-26T11:22:28.615Z,30.00
2019-04-26T11:24:50.079Z,29.90
2019-04-26T11:27:18.755Z,29.70
2019-04-26T11:29:53.560Z,29.60
2019-04-26T11:32:20.646Z,29.50
2019-04-26T11:34:58.129Z,29.50
2019-04-26T11:37:25.719Z,29.40
2019-04-26T11:39:55.179Z,29.30
2019-04-26T11:42:25.093Z,29.20
2019-04-26T11:45:05.748Z,29.20
2019-04-26T11:47:25.921Z,29.00
2019-04-26T11:49:56.101Z,29.00
2019-04-26T11:52:25.430Z,28.90
2019-04-26T11:54:55.235Z,28.90
2019-04-26T11:57:25.377Z,28.80
2019-04-26T11:59:54.643Z,28.80
2019-04-26T12:02:23.962Z,28.90
2019-04-26T12:05:03.460Z,28.80
2019-04-26T12:07:43.594Z,28.70
2019-04-26T12:10:13.555Z,28.60
2019-04-26T12:12:43.131Z,28.60
2019-04-26T12:15:14.089Z,28.60
2019-04-26T12:17:43.369Z,28.50
2019-04-26T12:20:12.684Z,28.40
2019-04-26T12:22:43.374Z,28.50
2019-04-26T12:25:13.504Z,28.60
2019-04-26T12:27:42.883Z,28.60
2019-04-26T12:30:12.749Z,28.50
2019-04-26T12:32:42.158Z,28.50
2019-04-26T12:35:11.661Z,28.50
2019-04-26T12:37:41.081Z,28.50
2019-04-26T12:40:12.348Z,28.50
2019-04-26T12:42:43.465Z,28.40
2019-04-26T12:45:20.153Z,28.30
2019-04-26T12:47:59.527Z,28.30
2019-04-26T12:50:29.557Z,28.30
2019-04-26T12:52:59.809Z,28.40
2019-04-26T12:55:29.123Z,28.40
2019-04-26T12:57:58.619Z,28.50
2019-04-26T13:00:32.965Z,28.70
2019-04-26T13:03:03.566Z,28.70
2019-04-26T13:05:33.077Z,28.80
2019-04-26T13:08:02.597Z,28.80
2019-04-26T13:10:53.805Z,28.70
2019-04-26T13:13:50.809Z,28.70
2019-04-26T13:16:38.263Z,28.60
2019-04-26T13:19:07.729Z,28.60
2019-04-26T13:21:38.605Z,28.60
2019-04-26T13:24:07.998Z,28.70
2019-04-26T13:26:37.299Z,28.70
2019-04-26T13:29:06.570Z,28.70
2019-04-26T13:31:35.897Z,28.80
2019-04-26T13:34:05.194Z,28.90
2019-04-26T13:36:34.521Z,29.00
2019-04-26T13:39:06.897Z,29.00
2019-04-26T13:41:38.709Z,29.10
2019-04-26T13:44:07.157Z,29.00
2019-04-26T13:46:54.490Z,28.90
2019-04-26T13:49:33.486Z,28.70
2019-04-26T13:52:02.882Z,28.90
2019-04-26T13:54:32.224Z,28.90
2019-04-26T13:57:01.518Z,28.70
2019-04-26T13:59:31.667Z,28.40
2019-04-26T14:02:11.368Z,28.30
2019-04-26T14:04:32.842Z,28.10
2019-04-26T14:07:02.112Z,27.90
2019-04-26T14:09:31.429Z,27.90
2019-04-26T14:12:03.356Z,27.80
2019-04-26T14:14:34.240Z,27.70
2019-04-26T14:17:02.722Z,27.60
2019-04-26T14:19:32.226Z,27.60
2019-04-26T14:22:03.253Z,27.60
2019-04-26T14:24:58.493Z,27.70
2019-04-26T14:27:45.370Z,27.60
2019-04-26T14:30:14.681Z,27.60
2019-04-26T14:32:43.942Z,27.60
2019-04-26T14:35:15.523Z,27.60
2019-04-26T14:37:45.488Z,27.60
2019-04-26T14:40:17.679Z,27.50
2019-04-26T14:42:48.449Z,27.50
2019-04-26T14:45:23.766Z,27.60
2019-04-26T14:47:48.420Z,27.60
2019-04-26T14:50:17.678Z,27.60
2019-04-26T14:52:46.941Z,27.60
2019-04-26T14:55:20.589Z,27.50
2019-04-26T14:57:51.279Z,27.40
2019-04-26T15:00:21.266Z,27.40
2019-04-26T15:03:06.208Z,27.20
2019-04-26T15:05:48.562Z,27.20
2019-04-26T15:08:17.851Z,27.20
2019-04-26T15:10:49.192Z,27.20
2019-04-26T15:13:20.898Z,27.30
2019-04-26T15:15:49.228Z,27.20
2019-04-26T15:18:18.557Z,27.30
2019-04-26T15:20:47.845Z,27.40
2019-04-26T15:23:19.420Z,27.40
2019-04-26T15:25:49.682Z,27.50
2019-04-26T15:28:19.262Z,27.40
2019-04-26T15:30:48.537Z,27.30
2019-04-26T15:33:17.841Z,27.30
2019-04-26T15:35:48.126Z,27.10
2019-04-26T15:38:17.391Z,27.00
2019-04-26T15:41:17.913Z,26.80
2019-04-26T15:44:06.131Z,26.70
2019-04-26T15:46:53.747Z,26.50
2019-04-26T15:49:42.942Z,26.40
2019-04-26T15:52:12.410Z,26.30
2019-04-26T15:54:42.514Z,26.20
2019-04-26T15:57:12.458Z,26.10
2019-04-26T15:59:43.070Z,26.10
2019-04-26T16:02:12.690Z,26.10
2019-04-26T16:04:42.459Z,26.10
2019-04-26T16:07:16.782Z,26.10
2019-04-26T16:09:43.807Z,26.10
2019-04-26T16:12:13.397Z,26.10
2019-04-26T16:14:42.919Z,26.10
2019-04-26T16:17:12.511Z,26.10
2019-04-26T16:19:42.049Z,26.10
2019-04-26T16:22:11.369Z,26.10
2019-04-26T16:24:40.693Z,26.10
2019-04-26T16:27:09.965Z,26.10
2019-04-26T16:30:02.657Z,26.10
2019-04-26T16:33:03.120Z,26.10
2019-04-26T16:35:32.677Z,26.10
2019-04-26T16:38:22.464Z,26.00
2019-04-26T16:40:53.451Z,25.90
2019-04-26T16:43:36.453Z,25.90
2019-04-26T16:45:54.257Z,25.70
2019-04-26T16:48:25.710Z,25.60
2019-04-26T16:50:54.737Z,25.50
2019-04-26T16:53:43.737Z,25.40
2019-04-26T16:55:55.030Z,25.30
2019-04-26T16:58:24.853Z,25.30
2019-04-26T17:00:57.962Z,25.20
2019-04-26T17:03:26.239Z,25.10
2019-04-26T17:06:04.819Z,25.00
2019-04-26T17:08:26.678Z,24.90
2019-04-26T17:10:56.715Z,24.80
2019-04-26T17:13:30.021Z,24.80
2019-04-26T17:15:59.800Z,24.70
2019-04-26T17:18:29.141Z,24.60
2019-04-26T17:20:58.478Z,24.50
2019-04-26T17:23:46.773Z,24.40
2019-04-26T17:26:33.607Z,24.40
2019-04-26T17:29:02.467Z,24.30
2019-04-26T17:31:33.636Z,24.20
2019-04-26T17:34:03.552Z,24.20
2019-04-26T17:36:34.601Z,24.10
2019-04-26T17:39:06.210Z,24.00
2019-04-26T17:41:35.617Z,23.90
2019-04-26T17:44:10.197Z,23.90
2019-04-26T17:46:36.219Z,23.80
2019-04-26T17:49:05.570Z,23.80
2019-04-26T17:51:41.776Z,23.70
2019-04-26T17:54:33.814Z,23.60
2019-04-26T17:56:39.554Z,23.60
2019-04-26T17:59:09.173Z,23.50
2019-04-26T18:01:46.853Z,23.40
2019-04-26T18:04:11.294Z,23.40
2019-04-26T18:06:48.196Z,23.30
2019-04-26T18:09:37.635Z,23.20
2019-04-26T18:11:43.291Z,23.20
2019-04-26T18:14:21.089Z,23.10
2019-04-26T18:16:47.383Z,23.10
2019-04-26T18:19:30.193Z,23.00
2019-04-26T18:22:14.518Z,23.00
2019-04-26T18:24:43.606Z,23.00
2019-04-26T18:27:14.658Z,22.90
2019-04-26T18:29:43.994Z,22.80
2019-04-26T18:32:13.371Z,22.80
2019-04-26T18:34:43.050Z,22.80
2019-04-26T18:37:13.271Z,22.70
2019-04-26T18:39:43.148Z,22.70
2019-04-26T18:42:13.939Z,22.60
2019-04-26T18:44:47.672Z,22.60
2019-04-26T18:47:20.645Z,22.50
2019-04-26T18:49:52.025Z,22.50
2019-04-26T18:52:23.367Z,22.40
2019-04-26T18:55:08.765Z,22.40
2019-04-26T18:57:38.057Z,22.40
2019-04-26T19:00:09.435Z,22.30
2019-04-26T19:02:38.770Z,22.20
2019-04-26T19:05:08.301Z,22.20
2019-04-26T19:07:37.554Z,22.20
2019-04-26T19:10:08.882Z,22.10
2019-04-26T19:12:38.953Z,22.10
2019-04-26T19:15:21.838Z,22.10
2019-04-26T19:18:06.194Z,22.00
2019-04-26T19:20:43.165Z,22.00
2019-04-26T19:23:12.449Z,21.90
2019-04-26T19:25:41.710Z,21.90
2019-04-26T19:28:12.138Z,21.80
2019-04-26T19:30:47.305Z,21.80
2019-04-26T19:33:16.844Z,21.80
2019-04-26T19:35:47.342Z,21.70
2019-04-26T19:38:17.006Z,21.70
2019-04-26T19:40:48.002Z,21.60
2019-04-26T19:43:28.211Z,21.60
2019-04-26T19:46:07.281Z,21.50
2019-04-26T19:48:44.270Z,21.50
2019-04-26T19:51:31.549Z,21.40
2019-04-26T19:54:13.562Z,21.40
2019-04-26T19:57:03.762Z,21.40
2019-04-26T19:59:34.461Z,21.30
2019-04-26T20:02:04.490Z,21.20
2019-04-26T20:04:34.109Z,21.20
2019-04-26T20:07:03.643Z,21.10
2019-04-26T20:09:33.077Z,21.10
2019-04-26T20:12:02.657Z,21.10
2019-04-26T20:14:45.054Z,21.00
2019-04-26T20:17:03.134Z,21.00
2019-04-26T20:19:37.094Z,21.00
2019-04-26T20:22:03.575Z,21.00
2019-04-26T20:24:33.068Z,20.90
2019-04-26T20:27:03.507Z,20.90
2019-04-26T20:29:32.998Z,20.90
2019-04-26T20:32:09.108Z,20.90
2019-04-26T20:34:38.585Z,20.80
2019-04-26T20:37:07.879Z,20.80
2019-04-26T20:39:37.293Z,20.80
2019-04-26T20:42:06.650Z,20.70
2019-04-26T20:44:49.024Z,20.70
2019-04-26T20:47:11.855Z,20.60
2019-04-26T20:49:49.367Z,20.60
2019-04-26T20:52:09.153Z,20.60
2019-04-26T20:54:38.439Z,20.50
2019-04-26T20:57:07.845Z,20.50
2019-04-26T20:59:37.207Z,20.40
2019-04-26T21:02:08.055Z,20.40
2019-04-26T21:04:38.582Z,20.40
2019-04-26T21:07:11.343Z,20.40
2019-04-26T21:09:40.827Z,20.40
2019-04-26T21:12:15.851Z,20.40
2019-04-26T21:14:44.538Z,20.30
2019-04-26T21:17:13.444Z,20.30
2019-04-26T21:19:42.929Z,20.30
2019-04-26T21:22:12.199Z,20.20
2019-04-26T21:24:43.284Z,20.20
2019-04-26T21:27:42.974Z,20.20
2019-04-26T21:30:34.809Z,20.20
2019-04-26T21:33:23.956Z,20.10
2019-04-26T21:36:15.620Z,20.10
2019-04-26T21:38:52.977Z,20.00
2019-04-26T21:41:25.466Z,20.00
2019-04-26T21:43:54.751Z,19.90
2019-04-26T21:46:24.020Z,19.90
2019-04-26T21:48:53.544Z,19.90
2019-04-26T21:51:23.097Z,19.80
2019-04-26T21:53:52.935Z,19.80
2019-04-26T21:56:23.548Z,19.80
2019-04-26T21:58:53.270Z,19.80
2019-04-26T22:01:25.165Z,19.70
2019-04-26T22:03:58.337Z,19.70
2019-04-26T22:06:28.785Z,19.70
2019-04-26T22:09:06.377Z,19.70
2019-04-26T22:11:35.633Z,19.60
2019-04-26T22:14:13.249Z,19.60
2019-04-26T22:17:02.186Z,19.60
2019-04-26T22:19:49.201Z,19.60
2019-04-26T22:22:46.273Z,19.60
2019-04-26T22:25:16.577Z,19.60
2019-04-26T22:27:45.843Z,19.60
2019-04-26T22:30:22.776Z,19.50
2019-04-26T22:32:54.627Z,19.60
2019-04-26T22:35:22.526Z,19.50
2019-04-26T22:37:53.614Z,19.50
2019-04-26T22:40:23.389Z,19.50
2019-04-26T22:42:58.034Z,19.50
2019-04-26T22:45:35.227Z,19.40
2019-04-26T22:48:11.681Z,19.40
2019-04-26T22:50:41.311Z,19.40
2019-04-26T22:53:11.992Z,19.40
2019-04-26T22:55:43.454Z,19.40
2019-04-26T22:58:13.413Z,19.40
2019-04-26T23:00:43.637Z,19.40
2019-04-26T23:03:13.775Z,19.40
2019-04-26T23:05:43.349Z,19.30
2019-04-26T23:08:13.561Z,19.30
2019-04-26T23:10:49.346Z,19.20
2019-04-26T23:13:44.556Z,19.20
2019-04-26T23:16:30.083Z,19.20
2019-04-26T23:19:20.419Z,19.20
2019-04-26T23:21:54.333Z,19.20
2019-04-26T23:24:23.703Z,19.10
2019-04-26T23:26:54.113Z,19.10
2019-04-26T23:29:23.557Z,19.10
2019-04-26T23:31:53.505Z,19.00
2019-04-26T23:34:25.291Z,19.00
2019-04-26T23:36:54.806Z,19.00
2019-04-26T23:39:24.607Z,18.90
2019-04-26T23:41:54.212Z,18.90
2019-04-26T23:44:23.589Z,18.90
2019-04-26T23:46:54.993Z,18.90
2019-04-26T23:49:25.268Z,18.80
2019-04-26T23:51:54.718Z,19.30
2019-04-26T23:54:24.106Z,18.70
2019-04-26T23:56:57.795Z,18.70
2019-04-26T23:59:26.089Z,18.60
